National Weather Service United States Department of Commerce

Hazardous Heat Across the Western U.S.; Heavy Rain and Flooding in the Southwest and Western Gulf Coast

Dangerous heat will persist over portions of interior California, the Great Basin, and the northern Rockies through Thursday. Heat will gradually spread into the northern Plains today. Across the western Gulf Coast, heavy to excessive rainfall will persist through mid-week. Additionally, the Southwest Monsoon will continue to bring a flash flooding threat to the Four Corners Region this week. Read More >

Aviation Forecast Discussion

.AVIATION /00Z WEDNESDAY THROUGH SUNDAY/...
The following discussion is for KPHL, KPNE, KTTN, KABE, KRDG, KILG, 
KMIV, KACY and surrounding areas.

Tonight...VFR ceilings will lower to MVFR, possibly IFR in some 
spots, later in the night and closer to daybreak Wednesday. Showers 
will increase after 04z-06z with a chance of thunderstorms in the 
vicinity. Any showers or thunderstorms have a better chance of MVFR 
or lower conditions. Southwest winds near 5 knots, becoming light 
and variable after sunset. Moderate confidence overall, lower 
confidence in timing of showers and lower conditions.

Wednesday...MVFR or IFR conditions to start the day with showers and 
isolated thunderstorms in the morning. An improvement to VFR is 
expected by midday, but additions scattered showers and 
thunderstorms will be possible during the afternoon. Light and 
variable winds during the morning, become south to southwest 5-10 
knots during the afternoon. Moderate confidence.


Outlook...  

Wed night thru Thursday... Occasional showers/tstms with lower
 CIGS/VSBYs at times. Other than that, mostly VFR.
 
Thu night thru Sunday... Mostly VFR. Patchy overnight rural fog.

&&

Latest PHL Terminal Aerodrome Forecast (TAF)

FTNA35 KPHL 232331 RRE
KPHL 232329Z 2400/2506 25005KT P6SM SCT050 BKN250
     FM240700 20003KT 5SM -SHRA BR VCTS OVC060CB
     FM241200 17003KT 6SM -SHRA BR VCTS OVC020CB
     FM241700 21005KT P6SM VCSH BKN020
     FM242100 21006KT P6SM VCSH BKN050

Latest Area Terminal Aerodrome Forecasts (TAFs)

FTUS51 KPNE 292321 RRB
KPNE 292320Z 3000/3024 VRB04KT P6SM SKC
     FM301000 34003KT P6SM SCT030
     FM301800 17004KT P6SM FEW040 BKN200

FTUS80 KTTN 292321 RRX
KTTN 292320Z 3000/3024 VRB04KT P6SM SKC
     FM300900 VRB03KT P6SM SCT030
     FM301800 17004KT P6SM SCT200

FTUS80 KILG 292321 RRN
KILG 292320Z 3000/3024 VRB05KT P6SM SKC
     FM300900 VRB03KT P6SM SCT030
     FM301500 VRB03KT P6SM SCT035 BKN200

FTUS51 KRDG 292321 RRB
KRDG 292320Z 3000/3024 VRB02KT P6SM SKC
     FM301600 16004KT P6SM SCT200

FTUS80 KABE 292321
KABE 292320Z 3000/3024 VRB03KT P6SM SKC
     FM301800 17003KT P6SM SCT200

FTNA35 KACY 292327 RRC
KACY 292320Z 3000/3024 VRB03KT P6SM SCT025
     TEMPO 3001/3005 BKN025
     FM300500 VRB03KT P6SM BKN025
     FM301500 03005KT P6SM BKN035

FTUS80 KMIV 292321 RRR
KMIV 292320Z 3000/3024 VRB02KT P6SM FEW025
      TEMPO 3003/3006 BKN025
     FM300600 VRB02KT P6SM BKN025
     FM301500 03005KT P6SM BKN035

FTUS80 KEWR 292321 RRI
KEWR 292320Z 3000/3106 VRB03KT P6SM SKC
     FM302000 16005KT P6SM FEW250
     FM310100 VRB03KT P6SM BKN250

FTUS41 KOKX 300102 AAA
TAFLGA
TAF AMD
KLGA 300102Z 3001/3106 VRB03KT P6SM SKC
     FM301300 05005KT P6SM SKC
     FM301900 15004KT P6SM FEW250
     FM310100 VRB03KT P6SM BKN250=

FTUS80 KJFK 300103 AAA
KJFK 300102Z 3001/3106 VRB02KT P6SM SKC
     FM301600 17006KT P6SM FEW250
     FM310000 VRB03KT P6SM FEW030 BKN250

FTUS80 KMDT 292324 RRB
KMDT 292321Z 3000/3024 00000KT P6SM SKC
     FM301200 VRB03KT P6SM BKN250

FTUS80 KBWI 292321 RRD
KBWI 292320Z 3000/3106 00000KT P6SM FEW060
     FM301500 15004KT P6SM SCT250
     FM310000 00000KT P6SM BKN080

FTUS80 KIAD 292321 RRM
KIAD 292320Z 3000/3106 VRB04KT P6SM FEW250
     FM300100 00000KT P6SM SKC
     FM301500 14004KT P6SM SCT250
     FM310300 00000KT P6SM BKN080

FTUS80 KDCA 292321 RRG
KDCA 292320Z 3000/3106 12004KT P6SM SKC
     FM300300 VRB03KT P6SM SKC
     FM301500 14005KT P6SM SCT250
     FM310400 15003KT P6SM BKN070

Raw METARs for WFO PHI CWA and Surrounding Areas

--TAFs--TimeTTdRHHIWCDirWindGPKVisWxPcpClouds
KRDG0015Z8264558419059CLR
KABE0015Z81686684120310SCT036
BKN045
KTTN0015Z81666283230610BKN045
BKN050
KPNE0015Z84645185230510BKN046
KPHL0015Z82686285180610FEW045
KILG0015Z81686684190710CLR
KMIV0015Z797279calm10CLR
KACY0020Z81707085200810CLR
--PA--TimeTTdRHHIWCDirWindGPKVisWxPcpClouds
KMPO0020Z706483110310CLR
K22N0015Z737089calm10CLR
KXLL0015Z796870200510CLR
KUKT0015Z797279calm10CLR
KCKZ0015Z7575100calm10CLR
KDYL0020Z82686285calm10CLR
KPTW0020Z81686684calm10BKN049
KLOM0015Z80676582230610CLR
KOQN0015Z81645883240310CLR
KMQS0015Z777389calm10CLR
--NJ--TimeTTdRHHIWCDirWindGPKVisWxPcpClouds
KFWN0020Z737089calm10CLR
K12N2354Z756982calm
KMMU2345Z777389calm10SCT070
BKN150
KSMQ0020Z757394calm10CLR
KBLM0020Z81707085220610CLR
KNEL0000Z80696983calmCLR
KMJX0020Z797279200310CLR
KWRI2355Z80696983200610OVC190
KVAY0020Z81686684calm10CLR
KWWD0020Z777389calm10CLR
--DE--TimeTTdRHHIWCDirWindGPKVisWxPcpClouds
K33N0015Z81737986calm10CLR
KDOV2355Z80727884100510FEW160
KGED0020Z81727485210910FEW110
--MD--TimeTTdRHHIWCDirWindGPKVisWxPcpClouds
KW290005Z84716589130510CLR
KESN2345Z82706686140510CLR
KCGE0005Z777283170122510FEW024
FEW029
SCT034
--OKXTAF--TimeTTdRHHIWCDirWindGPKVisWxPcpClouds
KTEB0020Z75687860510CLR
KEWR0015Z79707430610BKN032
KLGA0020Z736883401310FEW044
KJFK0020Z79738460710FEW043
BKN055
KISP0020Z73729490310FEW009
SCT026
KHPN0020Z72709460510BKN024
BKN046
KSWF2345Z737089calm10SCT040
SCT100
KBDR0020Z73708990810SCT008
BKN029
OVC042
KGON0020Z727094100610OVC006
--LWXTAF--TimeTTdRHHIWCDirWindGPKVisWxPcpClouds
KMTN2354Z82727086110610CLR
KBWI0020Z82727086140510SCT120
KDCA0020Z847062881501210SCT120
KIAD0020Z84665586150810BKN120
KMRB0020Z8164588380310BKN065
KCHO0015Z737294180810OVC090
-Misc-TimeTTdRHHIWCDirWindGPKVisWxPcpClouds
KCDW0020Z77707990510CLR
KLNS0020Z796870130510CLR
KHZL0015Z706688calm
KAVP0020Z756674120310CLR
KCXY0020Z82635183120510CLR
KMDT0020Z82645584calm10CLR
KUNV2353Z776361190510CLR
KTHV0020Z81666283calm10CLR
KSEG0020Z756878calm10CLR
KMUI2355Z80666482calm10FEW050
SCT220
BKN220
KNHK2352Z797485170105 -RAFEW031
SCT095
BKN120
KOXB0020Z75728925066 -RA BR0.04SCT110
KSBY0020Z72709420065 +RA BR0.06SCT090
BKN110
KWAL0020Z757510029035 -RA BR0.02FEW120
KBGM0020Z72647890610FEW049
BKN060
KNYC2351Z776874VRB510SCT045
KMGJ0020Z727094calm10CLR
KPOU0020Z757083calm10CLR

 

KDIX Radar Loop

KDIX Radar

KDOX Radar Loop

KDOX Radar

Visible Satellite

Visible ImageVisible Loop

Infrared Satellite

Infrared ImageInfrared Loop

ZNY Briefing

ZNY Briefing

ZNY SWAP Statement

ZNY SWAP Statement

KPHL Wind Speed Outlook

KPHL Wind Outlook

KPHL Icing Outlook

KPHL Icing  Outlook

KPHL Compression Outlook

KPHL Compression Outlook

ZNY Day 1 SWAP

KPHL Day 1 SWAP

ZNY Day 2 SWAP

KPHL Day 2 SWAP

Turbulence PIREPs

Turbulence PIREPs

Icing PIREPs

Icing PIREPs

Weather/Sky PIREPs

Weather/Sky PIREPs

Current AIRMETs/SIGMETs

Current AIRMETs/SIGMETs

Sierra (Mountains/IFR) AIRMETs

Current 3-hr Forecast 6-hr Forecast

No Plot Available

No Plot Available

No Plot Available

9-hr Forecast 12-hr Forecast

No Plot Available

No Plot Available

Tango (Turbulence/LLWS) AIRMETs

Current 3-hr Forecast 6-hr Forecast

No Plot Available

No Plot Available

No Plot Available

9-hr Forecast 12-hr Forecast

No Plot Available

No Plot Available

Icing AIRMETs

Current 3-hr Forecast 6-hr Forecast

No Plot Available

No Plot Available

No Plot Available

9-hr Forecast 12-hr Forecast

No Plot Available

No Plot Available

Freezing Level AIRMETs

Current 3-hr Forecast 6-hr Forecast

No Plot Available

No Plot Available

No Plot Available

9-hr Forecast 12-hr Forecast

No Plot Available

No Plot Available